Terminal Aerodrome Forecast
Issued by NWS

Home | Current Version | Previous Version | Text Only | Print | Product List | Glossary On
Versions: 1 2 3 4 5 6 7 8 9 10 11 12
000
FTUS42 TJSJ 271100
TAFJMZ
TAF
TJMZ 271140Z 2712/2812 09005KT P6SM FEW030
     FM271530 27008KT P6SM VCSH SCT025 BKN030
      TEMPO 2718/2721 3SM TSRA SCT020CB BKN030
     FM272100 11006KT P6SM FEW040=

USA.gov is the U.S. government's official web portal to all federal, state and local government web resources and services.